Time;durP1;ratioP1;P1;durP2;ratioP2;P2;SDS_P1;SDS_P2;PMS_P1;PMS_P2;Temp;Humidity;BMP_temperature;BMP_pressure;BME280_temperature;BME280_humidity;BME280_pressure;Samples;Min_cycle;Max_cycle;Signal;HPM_P1;HPM_P2
2023/02/04 00:02:04;;;;;;;19.00;9.70;;;;;;;-0.72;100.00;100037.88;105289;1261;98390;-75
2023/02/04 00:04:50;;;;;;;16.70;9.40;;;;;;;-0.75;100.00;100044.60;105394;1264;102536;-76
2023/02/04 00:07:35;;;;;;;13.90;8.60;;;;;;;-0.77;100.00;100052.46;105002;1264;99033;-75
2023/02/04 00:10:21;;;;;;;14.80;8.50;;;;;;;-0.79;100.00;100057.73;104997;1264;98061;-76
2023/02/04 00:13:07;;;;;;;15.20;8.40;;;;;;;-0.82;100.00;100057.43;105022;1263;97967;-75
2023/02/04 00:15:52;;;;;;;12.60;7.70;;;;;;;-0.85;100.00;100069.26;105049;1263;98028;-75
2023/02/04 00:18:38;;;;;;;15.20;8.70;;;;;;;-0.88;100.00;100075.85;105078;1261;101838;-76
2023/02/04 00:21:23;;;;;;;13.60;8.70;;;;;;;-0.90;100.00;100078.27;104964;1264;100404;-74
2023/02/04 00:24:09;;;;;;;11.80;8.30;;;;;;;-0.92;100.00;100089.09;104997;1264;98062;-75
2023/02/04 00:26:56;;;;;;;12.10;7.60;;;;;;;-0.92;100.00;100098.94;105012;1273;98059;-75
2023/02/04 00:29:41;;;;;;;10.20;7.20;;;;;;;-0.92;100.00;100111.95;105034;1262;98577;-76
2023/02/04 00:32:27;;;;;;;9.50;6.60;;;;;;;-0.93;100.00;100127.09;104869;1260;102377;-76
2023/02/04 00:35:13;;;;;;;12.40;7.30;;;;;;;-0.95;100.00;100133.36;105090;1264;99225;-75
2023/02/04 00:37:58;;;;;;;11.90;7.60;;;;;;;-0.96;100.00;100140.27;104875;1260;99243;-76
2023/02/04 00:40:44;;;;;;;12.60;7.00;;;;;;;-0.97;100.00;100155.05;105084;1264;98036;-74
2023/02/04 00:43:30;;;;;;;12.80;8.40;;;;;;;-0.98;100.00;100159.24;105086;1260;98495;-75
2023/02/04 00:46:16;;;;;;;8.60;6.30;;;;;;;-0.99;100.00;100165.79;105035;1260;102615;-75
2023/02/04 00:49:02;;;;;;;11.00;7.40;;;;;;;-1.00;100.00;100173.41;104950;1261;100354;-76
2023/02/04 00:51:47;;;;;;;12.30;7.90;;;;;;;-1.01;100.00;100181.86;104893;1259;99407;-74
2023/02/04 00:54:33;;;;;;;13.40;7.80;;;;;;;-1.01;100.00;100194.00;105096;1262;97985;-77
2023/02/04 00:57:20;;;;;;;13.00;7.40;;;;;;;-1.02;100.00;100199.86;105157;1262;98002;-77
2023/02/04 01:00:06;;;;;;;14.50;8.40;;;;;;;-1.02;100.00;100220.52;104967;1262;101360;-76
2023/02/04 01:02:51;;;;;;;13.00;7.50;;;;;;;-1.01;100.00;100236.55;104973;1260;101008;-76
2023/02/04 01:05:38;;;;;;;13.10;8.20;;;;;;;-1.01;100.00;100252.87;105033;1261;98097;-75
2023/02/04 01:08:23;;;;;;;13.90;8.80;;;;;;;-1.03;100.00;100262.81;105319;1259;97919;-76
2023/02/04 01:11:09;;;;;;;13.10;8.60;;;;;;;-1.03;100.00;100272.66;104998;1264;98637;-75
2023/02/04 01:13:54;;;;;;;13.40;8.80;;;;;;;-1.03;100.00;100278.77;105023;1260;101356;-77
2023/02/04 01:16:40;;;;;;;17.10;9.40;;;;;;;-1.03;100.00;100285.27;105051;1264;99061;-76
2023/02/04 01:19:26;;;;;;;16.40;9.50;;;;;;;-1.04;100.00;100294.30;104902;1264;98055;-75
2023/02/04 01:22:12;;;;;;;15.30;10.20;;;;;;;-1.05;100.00;100298.52;105049;1262;97965;-75
2023/02/04 01:24:58;;;;;;;15.60;10.00;;;;;;;-1.05;100.00;100315.02;104943;1260;98674;-76
2023/02/04 01:27:59;;;;;;;14.40;8.60;;;;;;;-1.06;100.00;100321.79;104963;1264;101375;-76
2023/02/04 01:30:45;;;;;;;12.10;8.70;;;;;;;-1.06;100.00;100328.45;105067;1264;99683;-75
2023/02/04 01:33:31;;;;;;;16.90;10.40;;;;;;;-1.06;100.00;100336.86;105009;1260;98636;-76
2023/02/04 01:36:20;;;;;;;16.80;9.10;;;;;;;-1.06;100.00;100350.13;105037;1261;98571;-72
2023/02/04 01:39:06;;;;;;;18.70;11.00;;;;;;;-1.05;100.00;100366.40;105080;1261;98576;-75
2023/02/04 01:41:52;;;;;;;15.40;9.10;;;;;;;-1.06;100.00;100374.36;105010;1274;101522;-75
2023/02/04 01:44:38;;;;;;;16.10;10.40;;;;;;;-1.06;100.00;100383.82;105034;1260;99350;-74
2023/02/04 01:47:24;;;;;;;16.60;10.50;;;;;;;-1.06;100.00;100394.12;105007;1259;97942;-76
2023/02/04 01:50:13;;;;;;;19.90;10.80;;;;;;;-1.05;100.00;100400.90;105024;1263;98111;-77
2023/02/04 01:52:59;;;;;;;18.80;10.60;;;;;;;-1.05;100.00;100411.44;105205;1263;98495;-75
2023/02/04 01:55:45;;;;;;;16.50;10.50;;;;;;;-1.05;100.00;100416.70;105208;1266;101335;-76
2023/02/04 01:58:32;;;;;;;16.10;9.90;;;;;;;-1.05;100.00;100426.47;104941;1260;99080;-75
2023/02/04 02:01:43;;;;;;;16.20;10.30;;;;;;;-1.04;100.00;100440.05;104903;1264;99017;-76
2023/02/04 02:04:31;;;;;;;16.80;11.10;;;;;;;-1.03;100.00;100458.19;105128;1264;97977;-75
2023/02/04 02:07:19;;;;;;;17.20;10.50;;;;;;;-1.03;100.00;100470.14;104894;1260;97982;-75
2023/02/04 02:10:07;;;;;;;19.60;11.30;;;;;;;-1.03;100.00;100484.12;105084;1261;102451;-75
2023/02/04 02:12:55;;;;;;;16.30;10.00;;;;;;;-1.02;100.00;100496.36;105158;1262;100804;-75
2023/02/04 02:15:41;;;;;;;16.50;9.90;;;;;;;-1.02;100.00;100509.67;105013;1262;98578;-76
2023/02/04 02:18:27;;;;;;;16.00;10.00;;;;;;;-1.02;100.00;100522.27;105035;1260;98339;-75
2023/02/04 02:21:15;;;;;;;18.30;10.40;;;;;;;-1.02;100.00;100535.95;105171;1260;97960;-76
2023/02/04 02:24:23;;;;;;;15.20;8.90;;;;;;;-1.01;100.00;100544.14;105008;1259;102223;-77
2023/02/04 02:27:12;;;;;;;15.50;9.20;;;;;;;-1.02;100.00;100555.94;104912;1260;99597;-75
2023/02/04 02:29:58;;;;;;;15.20;9.10;;;;;;;-1.02;100.00;100566.80;105079;1259;97946;-76
2023/02/04 02:32:45;;;;;;;14.90;9.20;;;;;;;-1.02;100.00;100578.35;105162;1263;97993;-74
2023/02/04 02:35:32;;;;;;;15.60;8.50;;;;;;;-1.02;100.00;100587.45;105123;1259;98437;-75
2023/02/04 02:38:18;;;;;;;13.10;9.10;;;;;;;-1.01;100.00;100602.34;105930;1259;101336;-76
2023/02/04 02:41:07;;;;;;;13.60;9.30;;;;;;;-1.02;100.00;100612.33;105210;1262;100314;-76
2023/02/04 02:43:53;;;;;;;17.00;9.00;;;;;;;-1.02;100.00;100617.58;105118;1264;98050;-76
2023/02/04 02:46:39;;;;;;;14.20;8.20;;;;;;;-1.02;100.00;100630.63;105226;1262;97960;-77
2023/02/04 02:49:32;;;;;;;11.20;7.40;;;;;;;-1.02;100.00;100635.34;105292;1262;98250;-75
2023/02/04 02:52:18;;;;;;;14.60;9.00;;;;;;;-1.03;100.00;100638.90;104962;1264;102208;-74
2023/02/04 02:55:04;;;;;;;9.90;6.80;;;;;;;-1.03;100.00;100642.80;104954;1263;100126;-74
2023/02/04 02:57:52;;;;;;;13.60;8.10;;;;;;;-1.04;100.00;100654.56;104995;1261;99270;-74
2023/02/04 03:00:37;;;;;;;14.80;8.40;;;;;;;-1.04;100.00;100671.22;104991;1261;98038;-76
2023/02/04 03:03:27;;;;;;;11.90;7.70;;;;;;;-1.04;100.00;100685.39;105098;1263;97973;-76
2023/02/04 03:06:22;;;;;;;12.10;8.00;;;;;;;-1.04;100.00;100695.59;105029;1259;101354;-74
2023/02/04 03:09:08;;;;;;;13.60;7.80;;;;;;;-1.04;100.00;100707.34;105059;1258;100375;-76
2023/02/04 03:11:53;;;;;;;13.20;8.00;;;;;;;-1.05;100.00;100720.32;105070;1259;97921;-75
2023/02/04 03:14:40;;;;;;;11.40;7.00;;;;;;;-1.04;100.00;100723.62;105106;1262;98234;-76
2023/02/04 03:17:25;;;;;;;11.20;7.80;;;;;;;-1.03;100.00;100735.48;104985;1260;98529;-75
2023/02/04 03:20:12;;;;;;;11.70;7.60;;;;;;;-1.03;100.00;100752.66;105090;1262;101360;-75
2023/02/04 03:22:58;;;;;;;10.90;6.90;;;;;;;-1.02;100.00;100763.98;104989;1260;100473;-76
2023/02/04 03:25:44;;;;;;;11.30;7.00;;;;;;;-1.02;100.00;100775.38;104901;1259;98080;-77
2023/02/04 03:28:30;;;;;;;10.60;6.60;;;;;;;-1.03;100.00;100781.38;104936;1263;97962;-76
2023/02/04 03:31:16;;;;;;;12.80;7.30;;;;;;;-1.04;100.00;100793.18;105083;1259;97952;-77
2023/02/04 03:34:01;;;;;;;14.10;7.00;;;;;;;-1.05;100.00;100800.25;105043;1262;101334;-76
2023/02/04 03:36:48;;;;;;;10.10;6.30;;;;;;;-1.05;100.00;100808.02;105272;1259;99130;-75
2023/02/04 03:39:33;;;;;;;11.10;7.10;;;;;;;-1.07;100.00;100812.66;105171;1264;97961;-76
2023/02/04 03:42:19;;;;;;;11.00;6.50;;;;;;;-1.08;100.00;100819.97;105303;1259;98078;-76
2023/02/04 03:45:05;;;;;;;10.40;7.20;;;;;;;-1.10;100.00;100832.15;105257;1259;97973;-76
2023/02/04 03:47:50;;;;;;;11.50;6.80;;;;;;;-1.13;100.00;100856.37;105144;1259;101359;-75
2023/02/04 03:50:36;;;;;;;12.00;7.40;;;;;;;-1.15;100.00;100867.77;105252;1259;100326;-76
2023/02/04 03:53:21;;;;;;;12.00;7.50;;;;;;;-1.17;100.00;100878.23;105047;1260;97968;-75
2023/02/04 03:56:09;;;;;;;12.10;7.80;;;;;;;-1.18;100.00;100880.92;105003;1258;98443;-76
2023/02/04 03:58:55;;;;;;;11.40;6.90;;;;;;;-1.19;100.00;100893.08;105048;1260;98400;-75
2023/02/04 04:01:40;;;;;;;10.80;6.80;;;;;;;-1.20;100.00;100904.04;105063;1259;101348;-76
2023/02/04 04:04:26;;;;;;;13.80;8.70;;;;;;;-1.22;100.00;100913.43;105148;1259;99201;-74
2023/02/04 04:07:11;;;;;;;15.80;9.30;;;;;;;-1.25;100.00;100921.02;105134;1262;97950;-76
2023/02/04 04:09:57;;;;;;;12.50;7.00;;;;;;;-1.28;100.00;100930.65;105047;1259;98028;-74
2023/02/04 04:12:43;;;;;;;10.50;7.60;;;;;;;-1.30;100.00;100945.02;105034;1259;99809;-76
2023/02/04 04:15:30;;;;;;;8.70;6.20;;;;;;;-1.33;100.00;100953.59;104972;1257;102168;-76
2023/02/04 04:18:16;;;;;;;13.20;7.70;;;;;;;-1.36;100.00;100961.55;105033;1261;99319;-77
2023/02/04 04:21:02;;;;;;;12.10;7.20;;;;;;;-1.39;100.00;100970.85;105003;1260;98804;-75
2023/02/04 04:23:47;;;;;;;9.30;6.20;;;;;;;-1.39;100.00;100982.60;105099;1260;99251;-76
2023/02/04 04:26:33;;;;;;;12.20;6.70;;;;;;;-1.39;100.00;100988.89;105027;1262;98489;-75
2023/02/04 04:29:18;;;;;;;9.80;6.30;;;;;;;-1.39;100.00;100994.66;104968;1260;102317;-74
2023/02/04 04:32:04;;;;;;;10.10;6.70;;;;;;;-1.38;100.00;101003.72;104993;1259;100369;-76
2023/02/04 04:34:49;;;;;;;9.40;6.30;;;;;;;-1.39;100.00;101015.30;105036;1258;98923;-77
2023/02/04 04:37:35;;;;;;;9.90;6.50;;;;;;;-1.37;100.00;101028.56;105072;1262;97900;-75
2023/02/04 04:40:21;;;;;;;10.30;6.50;;;;;;;-1.35;100.00;101034.01;105011;1262;98509;-74
2023/02/04 04:43:06;;;;;;;9.40;6.10;;;;;;;-1.34;100.00;101043.70;105147;1262;101535;-77
2023/02/04 04:45:51;;;;;;;12.90;7.00;;;;;;;-1.31;100.00;101052.11;105067;1259;99072;-77
2023/02/04 04:48:37;;;;;;;11.20;6.30;;;;;;;-1.29;100.00;101050.42;105112;1259;97970;-74
2023/02/04 04:51:22;;;;;;;11.40;7.00;;;;;;;-1.27;100.00;101060.63;105153;1262;98438;-77
2023/02/04 04:54:08;;;;;;;13.70;6.30;;;;;;;-1.25;100.00;101068.91;105032;1259;98558;-75
2023/02/04 04:56:54;;;;;;;15.10;7.00;;;;;;;-1.23;100.00;101077.87;105263;1260;101484;-76
2023/02/04 04:59:39;;;;;;;10.10;6.50;;;;;;;-1.21;100.00;101083.50;105079;1259;99601;-74
2023/02/04 05:02:25;;;;;;;12.40;6.80;;;;;;;-1.18;100.00;101087.20;105049;1262;98003;-77
2023/02/04 05:05:12;;;;;;;10.50;6.80;;;;;;;-1.16;100.00;101101.42;105064;1262;99292;-77
2023/02/04 05:07:58;;;;;;;9.90;6.30;;;;;;;-1.15;100.00;101113.23;105100;1259;97971;-76
2023/02/04 05:10:43;;;;;;;10.00;6.50;;;;;;;-1.13;100.00;101118.71;105025;1259;101372;-75
2023/02/04 05:13:29;;;;;;;10.40;5.90;;;;;;;-1.12;100.00;101134.45;105094;1263;99411;-77
2023/02/04 05:16:16;;;;;;;11.00;7.70;;;;;;;-1.10;100.00;101142.17;104947;1260;97947;-76
2023/02/04 05:19:01;;;;;;;11.20;7.20;;;;;;;-1.08;100.00;101153.81;105238;1259;98567;-75
2023/02/04 05:21:47;;;;;;;12.30;6.90;;;;;;;-1.08;100.00;101156.92;105096;1262;99265;-77
2023/02/04 05:24:32;;;;;;;11.90;6.30;;;;;;;-1.08;100.00;101169.58;105077;1261;101355;-75
2023/02/04 05:27:18;;;;;;;10.30;5.40;;;;;;;-1.08;100.00;101185.72;105031;1259;99221;-74
2023/02/04 05:30:04;;;;;;;11.60;6.20;;;;;;;-1.09;100.00;101198.00;104959;1264;98263;-77
2023/02/04 05:32:49;;;;;;;11.80;6.30;;;;;;;-1.10;100.00;101202.48;105007;1260;98538;-75
2023/02/04 05:35:34;;;;;;;9.30;6.30;;;;;;;-1.12;100.00;101206.80;105153;1262;97869;-76
2023/02/04 05:38:20;;;;;;;9.90;6.00;;;;;;;-1.15;100.00;101216.95;105009;1259;101900;-75
2023/02/04 05:41:05;;;;;;;9.80;5.90;;;;;;;-1.18;100.00;101233.27;105005;1262;99738;-77
2023/02/04 05:43:51;;;;;;;10.10;6.40;;;;;;;-1.21;99.94;101241.02;104979;1264;99057;-74
2023/02/04 05:46:38;;;;;;;11.60;6.80;;;;;;;-1.24;99.70;101256.25;106273;1259;97946;-80
2023/02/04 05:49:27;;;;;;;10.80;6.90;;;;;;;-1.27;99.54;101271.55;105876;1262;97953;-82
2023/02/04 05:52:15;;;;;;;12.10;6.50;;;;;;;-1.31;99.26;101276.17;105910;1259;101872;-84
2023/02/04 05:55:01;;;;;;;10.70;6.40;;;;;;;-1.35;99.21;101286.08;105749;1261;100414;-76
2023/02/04 05:57:46;;;;;;;13.10;6.80;;;;;;;-1.40;99.17;101293.87;105010;1262;99356;-74
2023/02/04 06:00:32;;;;;;;13.20;7.80;;;;;;;-1.44;98.89;101307.85;105034;1260;98011;-76
2023/02/04 06:03:18;;;;;;;9.50;5.80;;;;;;;-1.51;98.76;101320.14;105089;1262;98502;-74
2023/02/04 06:06:03;;;;;;;12.80;6.80;;;;;;;-1.58;98.66;101331.08;105053;1260;101332;-76
2023/02/04 06:08:49;;;;;;;12.80;6.60;;;;;;;-1.64;98.65;101341.07;105022;1262;99074;-75
2023/02/04 06:11:35;;;;;;;9.80;6.20;;;;;;;-1.70;98.55;101344.77;105015;1264;99241;-75
2023/02/04 06:14:20;;;;;;;10.60;6.40;;;;;;;-1.77;98.59;101345.85;104926;1265;97976;-75
2023/02/04 06:17:05;;;;;;;10.10;6.10;;;;;;;-1.82;98.50;101362.63;105071;1262;100052;-75
2023/02/04 06:19:51;;;;;;;11.70;6.50;;;;;;;-1.88;98.39;101367.17;104953;1259;101404;-75
2023/02/04 06:22:36;;;;;;;9.40;5.20;;;;;;;-1.92;98.33;101377.42;105082;1263;100668;-74
2023/02/04 06:25:23;;;;;;;9.80;5.20;;;;;;;-1.97;98.25;101385.40;105051;1262;98992;-75
2023/02/04 06:28:08;;;;;;;10.40;5.80;;;;;;;-2.00;98.23;101391.57;104999;1259;98745;-74
2023/02/04 06:30:54;;;;;;;9.80;5.40;;;;;;;-2.05;98.18;101399.37;105087;1259;99598;-75
2023/02/04 06:33:39;;;;;;;8.90;5.10;;;;;;;-2.09;98.15;101415.85;105073;1259;103243;-75
2023/02/04 06:36:25;;;;;;;7.50;4.80;;;;;;;-2.13;98.13;101424.64;105049;1262;99080;-74
2023/02/04 06:39:10;;;;;;;7.60;5.20;;;;;;;-2.16;97.95;101425.89;105073;1263;97976;-75
2023/02/04 06:41:56;;;;;;;8.00;5.20;;;;;;;-2.19;98.02;101424.30;105325;1262;97967;-80
2023/02/04 06:44:42;;;;;;;8.70;5.30;;;;;;;-2.20;98.02;101434.85;105675;1258;98010;-74
2023/02/04 06:47:27;;;;;;;7.80;5.00;;;;;;;-2.23;97.65;101443.77;105390;1262;101336;-75
2023/02/04 06:50:17;;;;;;;7.90;4.80;;;;;;;-2.26;97.64;101452.15;105061;1263;100312;-75
2023/02/04 06:53:03;;;;;;;9.30;4.80;;;;;;;-2.28;97.52;101460.14;105026;1259;99087;-76
2023/02/04 06:55:48;;;;;;;11.30;4.90;;;;;;;-2.29;97.53;101471.39;105025;1262;97980;-74
2023/02/04 06:58:34;;;;;;;10.10;5.00;;;;;;;-2.30;97.40;101477.60;105036;1258;98526;-74
2023/02/04 07:01:19;;;;;;;7.90;4.60;;;;;;;-2.32;97.25;101484.15;105194;1262;101363;-76
2023/02/04 07:04:05;;;;;;;7.80;4.60;;;;;;;-2.33;97.23;101488.57;105076;1262;99244;-74
2023/02/04 07:06:50;;;;;;;7.00;4.70;;;;;;;-2.33;97.17;101497.66;105030;1259;98477;-76
2023/02/04 07:09:36;;;;;;;6.70;3.70;;;;;;;-2.33;96.90;101502.23;105074;1262;98397;-74
2023/02/04 07:12:22;;;;;;;7.40;3.90;;;;;;;-2.34;96.80;101508.38;105044;1259;97953;-74
2023/02/04 07:15:08;;;;;;;6.60;4.60;;;;;;;-2.36;96.73;101518.79;105058;1259;101348;-76
2023/02/04 07:17:53;;;;;;;8.00;4.60;;;;;;;-2.35;96.76;101531.35;104974;1262;100082;-74
2023/02/04 07:20:39;;;;;;;7.10;3.90;;;;;;;-2.35;96.54;101531.67;104989;1262;99075;-75
2023/02/04 07:23:26;;;;;;;8.00;3.70;;;;;;;-2.35;96.45;101537.98;105045;1258;98054;-76
2023/02/04 07:26:12;;;;;;;8.10;3.50;;;;;;;-2.35;96.23;101545.66;105007;1264;98123;-76
2023/02/04 07:28:57;;;;;;;7.80;3.90;;;;;;;-2.36;95.99;101548.02;105092;1262;101371;-75
2023/02/04 07:32:12;;;;;;;6.10;3.80;;;;;;;-2.37;95.65;101551.57;105446;1260;100495;-85
2023/02/04 07:35:01;;;;;;;7.10;3.60;;;;;;;-2.36;95.47;101558.88;106184;1261;99033;-86
2023/02/04 07:37:47;;;;;;;6.90;3.10;;;;;;;-2.34;95.36;101568.03;105834;1264;99343;-81
2023/02/04 07:40:33;;;;;;;5.00;2.70;;;;;;;-2.31;95.30;101578.23;106200;1259;97771;-84
2023/02/04 07:43:18;;;;;;;6.80;3.90;;;;;;;-2.30;95.09;101576.41;104955;1262;102628;-74
2023/02/04 07:46:04;;;;;;;7.10;3.30;;;;;;;-2.29;95.01;101574.58;105266;1262;99077;-74
2023/02/04 07:48:49;;;;;;;6.00;3.00;;;;;;;-2.27;94.61;101582.02;105253;1262;97967;-74
2023/02/04 07:51:35;;;;;;;8.20;3.10;;;;;;;-2.25;94.48;101593.46;105193;1262;97982;-74
2023/02/04 07:54:21;;;;;;;6.50;2.80;;;;;;;-2.23;94.33;101599.12;105006;1263;99241;-76
2023/02/04 07:57:06;;;;;;;7.50;4.00;;;;;;;-2.22;94.29;101596.77;105909;1260;101399;-73
2023/02/04 07:59:51;;;;;;;6.20;3.10;;;;;;;-2.20;94.20;101600.16;105126;1259;99808;-74
2023/02/04 08:02:37;;;;;;;6.20;3.50;;;;;;;-2.18;94.07;101606.71;105216;1262;100030;-74
2023/02/04 08:05:23;;;;;;;8.00;3.10;;;;;;;-2.16;94.10;101614.12;104958;1262;97983;-75
2023/02/04 08:08:08;;;;;;;9.10;3.50;;;;;;;-2.16;93.87;101622.88;105126;1262;98492;-75
2023/02/04 08:10:54;;;;;;;6.20;3.20;;;;;;;-2.18;93.61;101625.07;105188;1262;103196;-73
2023/02/04 08:13:40;;;;;;;8.50;3.70;;;;;;;-2.16;93.65;101625.66;105030;1262;99321;-73
2023/02/04 08:16:25;;;;;;;5.20;2.80;;;;;;;-2.14;93.51;101627.86;105329;1259;99296;-74
2023/02/04 08:19:11;;;;;;;5.20;2.90;;;;;;;-2.12;93.62;101633.84;105117;1259;98018;-75
2023/02/04 08:21:57;;;;;;;7.50;3.70;;;;;;;-2.09;93.53;101641.56;105191;1258;98424;-74
2023/02/04 08:24:42;;;;;;;6.30;3.00;;;;;;;-2.07;93.45;101648.62;105346;1262;101358;-76
2023/02/04 08:27:28;;;;;;;5.60;2.70;;;;;;;-2.03;93.37;101655.96;105390;1262;100331;-79
2023/02/04 08:30:14;;;;;;;7.20;3.90;;;;;;;-1.98;93.26;101659.37;105048;1262;98019;-74
2023/02/04 08:32:59;;;;;;;6.30;3.60;;;;;;;-1.95;93.11;101663.59;105066;1258;98009;-74
2023/02/04 08:35:47;;;;;;;6.60;3.20;;;;;;;-1.95;93.03;101670.37;105146;1262;99339;-82
2023/02/04 08:38:33;;;;;;;7.60;3.10;;;;;;;-1.97;92.83;101671.91;105398;1260;101334;-75
2023/02/04 08:41:18;;;;;;;6.20;3.00;;;;;;;-1.96;92.83;101670.47;105525;1262;99094;-80
2023/02/04 08:44:22;;;;;;;7.50;3.70;;;;;;;-1.94;92.63;101672.44;106135;1259;97909;-86
2023/02/04 08:47:09;;;;;;;9.20;3.60;;;;;;;-1.93;92.52;101677.83;105444;1265;97884;-84
2023/02/04 08:49:55;;;;;;;8.20;3.90;;;;;;;-1.90;92.58;101680.29;105672;1267;98017;-83
2023/02/04 08:52:40;;;;;;;5.20;3.20;;;;;;;-1.83;92.77;101685.54;105872;1263;102620;-84
2023/02/04 08:55:28;;;;;;;12.20;4.60;;;;;;;-1.78;92.57;101688.39;105748;1262;100395;-74
2023/02/04 08:58:14;;;;;;;7.90;3.90;;;;;;;-1.74;92.48;101689.56;105063;1262;98011;-74
2023/02/04 09:01:06;;;;;;;5.90;3.20;;;;;;;-1.69;92.66;101692.47;105746;1262;97794;-82
2023/02/04 09:03:51;;;;;;;9.20;4.00;;;;;;;-1.65;92.25;101693.96;105649;1264;99779;-79
2023/02/04 09:06:36;;;;;;;6.70;3.90;;;;;;;-1.65;91.99;101701.50;105012;1262;101366;-76
2023/02/04 09:09:22;;;;;;;6.90;4.30;;;;;;;-1.64;91.94;101703.58;105318;1262;99170;-76
2023/02/04 09:12:07;;;;;;;5.20;3.40;;;;;;;-1.59;92.16;101709.58;106117;1260;97902;-77
2023/02/04 09:14:53;;;;;;;6.90;3.70;;;;;;;-1.53;92.02;101717.66;105055;1260;98028;-74
2023/02/04 09:17:38;;;;;;;7.20;3.70;;;;;;;-1.50;91.67;101724.88;105286;1271;97867;-79
2023/02/04 09:20:24;;;;;;;6.30;3.50;;;;;;;-1.47;91.49;101729.61;105868;1258;102280;-80
2023/02/04 09:23:11;;;;;;;5.80;3.30;;;;;;;-1.45;91.35;101733.04;105934;1260;100025;-80
2023/02/04 09:25:56;;;;;;;7.80;3.50;;;;;;;-1.44;91.18;101740.65;105784;1262;97961;-75
2023/02/04 09:28:42;;;;;;;5.70;3.10;;;;;;;-1.39;91.42;101738.82;105476;1262;97910;-80
2023/02/04 09:31:29;;;;;;;5.90;3.50;;;;;;;-1.32;91.30;101731.39;105999;1259;98671;-81
2023/02/04 09:34:15;;;;;;;7.40;3.20;;;;;;;-1.26;91.04;101730.20;105564;1270;103816;-78
2023/02/04 09:37:00;;;;;;;6.50;3.60;;;;;;;-1.23;90.68;101733.15;105697;1259;99086;-82
2023/02/04 09:39:45;;;;;;;6.40;2.80;;;;;;;-1.19;90.46;101737.73;106086;1259;99033;-83
2023/02/04 09:42:32;;;;;;;7.10;3.50;;;;;;;-1.17;90.23;101753.36;106165;1259;97903;-77
2023/02/04 09:45:25;;;;;;;6.70;3.40;;;;;;;-1.17;89.97;101762.98;105698;1263;98173;-85
2023/02/04 09:48:13;;;;;;;6.90;2.70;;;;;;;-1.14;90.06;101771.61;105881;1261;102595;-85
2023/02/04 09:51:07;;;;;;;6.40;2.90;;;;;;;-1.09;90.15;101777.98;106257;1266;99987;-82
2023/02/04 09:54:05;;;;;;;5.80;2.50;;;;;;;-1.07;89.92;101782.77;106048;1262;98094;-82
2023/02/04 09:56:51;;;;;;;6.00;3.60;;;;;;;-1.08;89.64;101784.58;105955;1260;97962;-80
2023/02/04 09:59:42;;;;;;;7.30;3.70;;;;;;;-1.10;89.44;101783.99;105933;1258;97929;-77
2023/02/04 10:02:27;;;;;;;6.90;3.50;;;;;;;-1.08;89.71;101789.83;105258;1262;101311;-76
2023/02/04 10:05:20;;;;;;;6.60;3.50;;;;;;;-1.07;89.15;101792.25;105748;1262;100250;-86
2023/02/04 10:08:06;;;;;;;10.90;3.50;;;;;;;-1.06;89.30;101794.96;105780;1266;98882;-78
2023/02/04 10:10:51;;;;;;;6.90;3.70;;;;;;;-1.02;89.39;101793.35;105856;1258;98632;-74
2023/02/04 10:13:41;;;;;;;7.30;3.30;;;;;;;-0.98;89.35;101797.18;105896;1264;98001;-76
2023/02/04 10:16:30;;;;;;;7.40;4.00;;;;;;;-0.96;89.11;101800.88;105504;1257;101332;-78
2023/02/04 10:19:15;;;;;;;7.00;4.30;;;;;;;-0.98;88.44;101798.91;105315;1264;100345;-78
2023/02/04 10:22:03;;;;;;;8.80;4.10;;;;;;;-1.03;88.16;101801.27;105146;1257;99661;-75
2023/02/04 10:24:48;;;;;;;9.10;4.90;;;;;;;-1.03;88.35;101802.84;105248;1258;97972;-75
2023/02/04 10:27:33;;;;;;;9.40;4.40;;;;;;;-1.04;88.07;101802.58;105211;1262;97968;-76
2023/02/04 10:30:25;;;;;;;6.80;3.70;;;;;;;-1.03;88.15;101803.95;105105;1263;102714;-76
2023/02/04 10:33:25;;;;;;;11.40;4.90;;;;;;;-1.03;87.81;101801.81;104987;1261;100521;-76
2023/02/04 10:36:10;;;;;;;6.40;3.10;;;;;;;-0.99;88.06;101798.26;104973;1264;98945;-76
2023/02/04 10:39:09;;;;;;;7.90;4.20;;;;;;;-0.94;88.19;101802.56;105346;1260;97950;-76
2023/02/04 10:41:56;;;;;;;9.50;4.60;;;;;;;-0.92;88.25;101802.41;105278;1257;97937;-76
2023/02/04 10:44:46;;;;;;;10.50;4.60;;;;;;;-0.93;87.62;101800.54;105854;1263;102730;-75
2023/02/04 10:47:31;;;;;;;11.90;5.20;;;;;;;-0.94;87.81;101800.59;105044;1260;100010;-76
2023/02/04 10:50:19;;;;;;;8.10;3.90;;;;;;;-0.89;87.91;101801.22;105180;1259;98181;-75
2023/02/04 10:56:20;;;;;;;7.40;3.90;;;;;;;-0.83;87.68;101809.83;105064;1263;98568;-76
2023/02/04 10:59:17;;;;;;;10.00;5.00;;;;;;;-0.81;87.77;101815.98;105039;1259;102340;-76
2023/02/04 11:02:16;;;;;;;7.20;4.20;;;;;;;-0.77;87.76;101820.37;105134;1262;99065;-75
2023/02/04 11:05:04;;;;;;;8.10;4.30;;;;;;;-0.79;87.28;101825.73;105296;1259;99163;-77
2023/02/04 11:07:49;;;;;;;8.40;4.10;;;;;;;-0.82;87.17;101823.09;105265;1262;99212;-72
2023/02/04 11:10:35;;;;;;;6.70;4.00;;;;;;;-0.82;87.33;101826.23;105216;1263;99102;-77
2023/02/04 11:13:26;;;;;;;8.60;4.70;;;;;;;-0.82;87.00;101821.88;105008;1259;103025;-76
2023/02/04 11:16:26;;;;;;;7.00;4.00;;;;;;;-0.83;86.97;101825.42;105093;1262;100312;-76
2023/02/04 11:19:13;;;;;;;9.10;4.30;;;;;;;-0.78;87.20;101828.85;105195;1260;99007;-76
2023/02/04 11:22:18;;;;;;;6.30;3.90;;;;;;;-0.70;87.31;101827.02;105304;1261;98022;-75
2023/02/04 11:25:32;;;;;;;7.90;3.80;;;;;;;-0.63;87.44;101828.36;105227;1262;98555;-76
2023/02/04 11:28:25;;;;;;;8.90;4.40;;;;;;;-0.58;87.43;101825.45;104999;1257;102617;-75
2023/02/04 11:31:27;;;;;;;8.20;4.80;;;;;;;-0.56;87.16;101831.30;105244;1264;100154;-74
2023/02/04 11:34:17;;;;;;;6.60;3.70;;;;;;;-0.56;87.07;101837.77;105125;1261;97948;-77
2023/02/04 11:37:14;;;;;;;9.70;4.20;;;;;;;-0.50;86.99;101839.91;104984;1263;97895;-77
2023/02/04 11:40:00;;;;;;;7.10;4.00;;;;;;;-0.47;87.16;101835.52;105019;1258;100343;-75
2023/02/04 11:42:47;;;;;;;9.30;4.60;;;;;;;-0.44;86.95;101831.28;105171;1257;102075;-76
2023/02/04 11:45:34;;;;;;;9.30;5.50;;;;;;;-0.46;86.36;101832.27;104971;1262;99231;-75
2023/02/04 11:48:20;;;;;;;12.00;6.00;;;;;;;-0.48;86.25;101830.27;104962;1259;98860;-76
2023/02/04 11:51:15;;;;;;;11.30;5.60;;;;;;;-0.50;86.35;101837.60;105013;1262;97963;-76
2023/02/04 11:54:01;;;;;;;11.00;5.00;;;;;;;-0.48;86.59;101836.95;105054;1259;98599;-74
2023/02/04 11:56:51;;;;;;;8.90;5.20;;;;;;;-0.47;86.64;101838.29;104979;1259;102265;-75
2023/02/04 11:59:36;;;;;;;11.30;5.00;;;;;;;-0.42;86.96;101840.98;104962;1264;99105;-76
2023/02/04 12:02:24;;;;;;;13.20;5.00;;;;;;;-0.29;87.15;101846.92;104978;1262;99677;-77
2023/02/04 12:05:13;;;;;;;8.90;4.50;;;;;;;-0.26;86.74;101845.17;105011;1259;97986;-76
2023/02/04 12:08:20;;;;;;;12.30;5.10;;;;;;;-0.26;86.67;101842.88;104957;1261;98624;-76
2023/02/04 12:11:13;;;;;;;10.90;5.40;;;;;;;-0.21;86.88;101848.58;105033;1262;101344;-77
2023/02/04 12:14:08;;;;;;;8.70;5.00;;;;;;;-0.19;87.11;101849.88;105086;1263;99152;-77
2023/02/04 12:16:55;;;;;;;11.00;4.70;;;;;;;-0.20;87.05;101852.55;104913;1263;98591;-77
2023/02/04 12:19:43;;;;;;;9.90;4.90;;;;;;;-0.19;86.85;101853.00;106515;1263;98486;-87
2023/02/04 12:22:36;;;;;;;9.20;4.40;;;;;;;-0.21;86.84;101851.06;105694;1258;98537;-82
2023/02/04 12:25:22;;;;;;;13.40;6.90;;;;;;;-0.26;86.66;101846.95;105812;1262;101362;-76
2023/02/04 12:28:07;;;;;;;10.50;4.90;;;;;;;-0.32;86.67;101844.45;106215;1258;99094;-87
2023/02/04 12:31:07;;;;;;;8.00;4.80;;;;;;;-0.31;86.75;101845.30;105995;1262;98965;-79
2023/02/04 12:33:53;;;;;;;9.80;5.20;;;;;;;-0.32;86.62;101846.60;105784;1265;97886;-84
2023/02/04 12:36:38;;;;;;;8.50;4.60;;;;;;;-0.33;86.54;101843.86;105637;1267;99386;-76
2023/02/04 12:39:24;;;;;;;8.10;4.60;;;;;;;-0.32;86.55;101847.13;105453;1258;102082;-80
2023/02/04 12:42:10;;;;;;;10.10;4.60;;;;;;;-0.31;86.70;101848.45;105262;1259;99094;-73